createdAt,value
2019-01-27T00:02:26.380Z,85.57
2019-01-27T00:04:57.830Z,85.40
2019-01-27T00:07:29.260Z,85.13
2019-01-27T00:10:00.692Z,85.51
2019-01-27T00:12:32.319Z,85.74
2019-01-27T00:15:04.831Z,85.92
2019-01-27T00:17:36.774Z,85.53
2019-01-27T00:20:10.202Z,85.59
2019-01-27T00:22:41.710Z,85.90
2019-01-27T00:25:13.046Z,86.20
2019-01-27T00:27:44.476Z,86.24
2019-01-27T00:30:21.761Z,86.35
2019-01-27T00:32:53.160Z,86.83
2019-01-27T00:35:26.061Z,86.51
2019-01-27T00:37:57.528Z,86.14
2019-01-27T00:40:28.969Z,87.33
2019-01-27T00:43:00.395Z,87.20
2019-01-27T00:45:31.836Z,86.51
2019-01-27T00:48:03.264Z,86.83
2019-01-27T00:50:34.804Z,86.43
2019-01-27T00:53:06.333Z,86.25
2019-01-27T00:55:37.780Z,86.71
2019-01-27T00:58:09.306Z,87.02
2019-01-27T01:00:42.840Z,86.59
2019-01-27T01:03:14.248Z,87.08
2019-01-27T01:05:48.854Z,87.43
2019-01-27T01:08:22.601Z,86.73
2019-01-27T01:10:54.031Z,86.90
2019-01-27T01:13:25.459Z,86.43
2019-01-27T01:15:56.914Z,86.60
2019-01-27T01:18:28.301Z,86.44
2019-01-27T01:20:59.749Z,85.94
2019-01-27T01:23:31.173Z,85.74
2019-01-27T01:26:02.611Z,86.14
2019-01-27T01:28:34.104Z,85.89
2019-01-27T01:31:05.804Z,85.78
2019-01-27T01:33:40.336Z,86.39
2019-01-27T01:36:11.822Z,86.11
2019-01-27T01:38:43.220Z,85.93
2019-01-27T01:41:14.752Z,85.95
2019-01-27T01:43:46.200Z,85.84
2019-01-27T01:46:17.644Z,85.89
2019-01-27T01:48:52.134Z,86.08
2019-01-27T01:51:23.572Z,85.87
2019-01-27T01:53:54.904Z,85.83
2019-01-27T01:56:26.354Z,85.90
2019-01-27T01:58:57.771Z,85.99
2019-01-27T02:01:29.198Z,86.05
2019-01-27T02:04:00.625Z,86.02
2019-01-27T02:06:34.266Z,86.43
2019-01-27T02:09:10.747Z,87.21
2019-01-27T02:11:42.172Z,86.63
2019-01-27T02:14:13.616Z,86.25
2019-01-27T02:16:45.209Z,86.07
2019-01-27T02:19:16.586Z,86.35
2019-01-27T02:21:49.282Z,86.60
2019-01-27T02:24:21.210Z,86.57
2019-01-27T02:26:52.628Z,86.80
2019-01-27T02:29:24.037Z,87.11
2019-01-27T02:31:55.504Z,87.10
2019-01-27T02:34:26.836Z,87.17
2019-01-27T02:36:58.300Z,87.43
2019-01-27T02:39:30.019Z,86.70
2019-01-27T02:42:01.464Z,86.89
2019-01-27T02:44:32.893Z,88.11
2019-01-27T02:47:04.561Z,87.69
2019-01-27T02:49:35.960Z,87.37
2019-01-27T02:52:07.488Z,87.30
2019-01-27T02:54:38.887Z,87.64
2019-01-27T02:57:10.343Z,87.08
2019-01-27T02:59:41.953Z,88.04
2019-01-27T03:02:13.397Z,87.69
2019-01-27T03:04:44.832Z,87.32
2019-01-27T03:07:36.112Z,87.28
2019-01-27T03:10:12.808Z,86.82
2019-01-27T03:12:44.321Z,87.04
2019-01-27T03:15:17.655Z,87.02
2019-01-27T03:17:49.092Z,87.38
2019-01-27T03:20:20.505Z,87.28
2019-01-27T03:22:54.012Z,87.19
2019-01-27T03:25:25.442Z,86.79
2019-01-27T03:27:58.484Z,87.02
2019-01-27T03:30:32.253Z,86.98
2019-01-27T03:33:05.422Z,86.54
2019-01-27T03:35:36.781Z,86.77
2019-01-27T03:38:10.000Z,87.03
2019-01-27T03:40:41.400Z,86.64
2019-01-27T03:43:12.880Z,86.29
2019-01-27T03:45:46.046Z,86.34
2019-01-27T03:48:17.837Z,86.16
2019-01-27T03:50:49.234Z,86.46
2019-01-27T03:53:20.683Z,86.59
2019-01-27T03:55:52.075Z,86.71
2019-01-27T03:58:24.480Z,86.04
2019-01-27T04:00:55.804Z,86.52
2019-01-27T04:03:27.238Z,86.98
2019-01-27T04:06:00.274Z,86.69
2019-01-27T04:08:31.835Z,86.11
2019-01-27T04:11:03.244Z,85.51
2019-01-27T04:13:34.676Z,86.06
2019-01-27T04:16:06.231Z,86.28
2019-01-27T04:18:37.800Z,86.95
2019-01-27T04:21:09.211Z,86.93
2019-01-27T04:23:40.684Z,87.02
2019-01-27T04:26:12.085Z,86.48
2019-01-27T04:28:43.526Z,86.27
2019-01-27T04:31:14.912Z,86.67
2019-01-27T04:33:46.347Z,86.75
2019-01-27T04:36:17.767Z,86.61
2019-01-27T04:38:49.219Z,86.87
2019-01-27T04:41:20.670Z,87.68
2019-01-27T04:43:52.007Z,87.01
2019-01-27T04:46:23.417Z,87.07
2019-01-27T04:48:56.353Z,87.49
2019-01-27T04:51:27.753Z,86.51
2019-01-27T04:53:59.160Z,87.13
2019-01-27T04:56:30.579Z,87.14
2019-01-27T04:59:01.936Z,87.20
2019-01-27T05:01:33.261Z,86.46
2019-01-27T05:04:17.327Z,86.84
2019-01-27T05:06:48.784Z,86.93
2019-01-27T05:09:20.204Z,87.44
2019-01-27T05:11:51.595Z,87.17
2019-01-27T05:14:23.035Z,87.32
2019-01-27T05:16:54.467Z,87.62
2019-01-27T05:19:25.902Z,87.49
2019-01-27T05:21:57.324Z,87.50
2019-01-27T05:24:30.350Z,87.67
2019-01-27T05:27:04.099Z,87.19
2019-01-27T05:29:35.533Z,87.24
2019-01-27T05:32:06.877Z,87.08
2019-01-27T05:34:38.320Z,86.93
2019-01-27T05:37:09.746Z,87.23
2019-01-27T05:39:42.274Z,87.19
2019-01-27T05:42:13.672Z,86.88
2019-01-27T05:44:45.047Z,86.75
2019-01-27T05:47:16.357Z,86.79
2019-01-27T05:49:47.809Z,86.43
2019-01-27T05:52:19.205Z,86.08
2019-01-27T05:54:50.719Z,86.05
2019-01-27T05:57:22.136Z,85.90
2019-01-27T05:59:56.359Z,86.18
2019-01-27T06:02:27.763Z,86.35
2019-01-27T06:04:59.211Z,86.17
2019-01-27T06:07:30.624Z,86.16
2019-01-27T06:10:02.081Z,86.22
2019-01-27T06:12:35.085Z,85.77
2019-01-27T06:15:08.196Z,85.55
2019-01-27T06:17:39.607Z,85.79
2019-01-27T06:20:13.019Z,85.79
2019-01-27T06:22:47.221Z,85.48
2019-01-27T06:25:18.675Z,85.17
2019-01-27T06:27:50.098Z,85.33
2019-01-27T06:30:23.925Z,85.20
2019-01-27T06:33:22.562Z,85.51
2019-01-27T06:35:54.009Z,85.06
2019-01-27T06:38:25.499Z,84.41
2019-01-27T06:40:56.941Z,84.11
2019-01-27T06:43:28.336Z,84.38
2019-01-27T06:46:00.189Z,84.04
2019-01-27T06:48:31.601Z,83.26
2019-01-27T06:51:03.157Z,83.19
2019-01-27T06:53:37.339Z,83.24
2019-01-27T06:56:08.945Z,83.30
2019-01-27T06:58:57.899Z,83.33
2019-01-27T07:01:38.117Z,83.50
2019-01-27T07:04:31.445Z,83.50
2019-01-27T07:07:36.936Z,83.07
2019-01-27T07:10:39.382Z,83.71
2019-01-27T07:13:28.140Z,83.28
2019-01-27T07:16:13.253Z,84.35
2019-01-27T07:19:03.575Z,84.54
2019-01-27T07:21:50.971Z,84.93
2019-01-27T07:24:44.157Z,85.44
2019-01-27T07:27:32.934Z,86.22
2019-01-27T07:30:25.962Z,85.52
2019-01-27T07:33:22.493Z,84.47
2019-01-27T07:36:04.646Z,84.41
2019-01-27T07:38:48.688Z,83.83
2019-01-27T07:41:37.527Z,83.71
2019-01-27T07:44:28.828Z,83.49
2019-01-27T07:47:08.888Z,83.54
2019-01-27T07:50:11.266Z,83.51
2019-01-27T07:52:58.576Z,84.01
2019-01-27T07:55:55.384Z,83.89
2019-01-27T07:58:35.822Z,83.41
2019-01-27T08:01:23.481Z,83.82
2019-01-27T08:04:24.217Z,83.54
2019-01-27T08:07:08.314Z,83.93
2019-01-27T08:09:46.926Z,83.66
2019-01-27T08:12:30.960Z,82.34
2019-01-27T08:15:36.417Z,82.76
2019-01-27T08:18:29.683Z,82.21
2019-01-27T08:21:16.702Z,82.53
2019-01-27T08:24:02.777Z,81.08
2019-01-27T08:26:44.487Z,78.35
2019-01-27T08:29:27.175Z,78.94
2019-01-27T08:32:32.491Z,80.61
2019-01-27T08:35:18.973Z,80.70
2019-01-27T08:38:03.585Z,80.76
2019-01-27T08:40:41.908Z,80.91
2019-01-27T08:43:38.351Z,81.07
2019-01-27T08:46:24.339Z,80.45
2019-01-27T08:48:55.754Z,79.86
2019-01-27T08:51:27.241Z,79.27
2019-01-27T08:53:58.761Z,79.33
2019-01-27T08:56:30.212Z,79.00
2019-01-27T08:59:02.866Z,79.33
2019-01-27T09:02:08.383Z,79.08
2019-01-27T09:05:10.752Z,79.23
2019-01-27T09:08:10.997Z,78.91
2019-01-27T09:10:54.430Z,77.60
2019-01-27T09:13:41.114Z,78.01
2019-01-27T09:16:37.184Z,76.93
2019-01-27T09:19:39.489Z,76.19
2019-01-27T09:22:34.478Z,75.70
2019-01-27T09:25:23.590Z,75.09
2019-01-27T09:28:17.861Z,74.95
2019-01-27T09:31:11.678Z,74.65
2019-01-27T09:33:54.354Z,74.72
2019-01-27T09:36:43.338Z,74.59
2019-01-27T09:39:32.528Z,74.22
2019-01-27T09:42:21.487Z,75.02
2019-01-27T09:45:14.165Z,75.25
2019-01-27T09:47:55.063Z,74.72
2019-01-27T09:50:38.353Z,74.26
2019-01-27T09:53:34.478Z,73.83
2019-01-27T09:56:21.663Z,73.94
2019-01-27T09:59:10.451Z,73.51
2019-01-27T10:02:15.703Z,73.92
2019-01-27T10:04:55.119Z,74.12
2019-01-27T10:07:52.880Z,72.82
2019-01-27T10:10:43.305Z,73.40
2019-01-27T10:13:34.354Z,72.95
2019-01-27T10:16:22.606Z,73.08
2019-01-27T10:19:15.549Z,72.72
2019-01-27T10:21:55.201Z,72.55
2019-01-27T10:24:45.798Z,72.43
2019-01-27T10:27:39.168Z,72.96
